createdAt,value
2022-12-28T00:02:23.393Z,1.59
2022-12-28T00:04:52.156Z,1.67
2022-12-28T00:07:20.877Z,1.57
2022-12-28T00:09:49.504Z,1.59
2022-12-28T00:12:18.932Z,1.68
2022-12-28T00:14:48.454Z,1.62
2022-12-28T00:17:17.165Z,1.41
2022-12-28T00:19:46.691Z,1.54
2022-12-28T00:22:15.379Z,1.55
2022-12-28T00:24:44.116Z,1.54
2022-12-28T00:27:12.811Z,1.57
2022-12-28T00:29:41.524Z,1.62
2022-12-28T00:32:10.351Z,1.60
2022-12-28T00:34:39.051Z,1.57
2022-12-28T00:37:12.984Z,1.35
2022-12-28T00:39:43.404Z,1.34
2022-12-28T00:42:12.052Z,1.29
2022-12-28T00:44:40.478Z,1.39
2022-12-28T00:47:09.953Z,1.48
2022-12-28T00:49:38.866Z,1.39
2022-12-28T00:52:08.504Z,1.28
2022-12-28T00:54:37.199Z,1.27
2022-12-28T00:57:05.054Z,1.18
2022-12-28T00:59:33.718Z,1.18
2022-12-28T01:02:03.430Z,1.12
2022-12-28T01:04:32.349Z,1.14
2022-12-28T01:07:00.155Z,0.74
2022-12-28T01:09:28.944Z,0.71
2022-12-28T01:11:57.728Z,0.89
2022-12-28T01:14:27.243Z,0.83
2022-12-28T01:16:56.804Z,0.82
2022-12-28T01:19:25.573Z,0.72
2022-12-28T01:21:54.359Z,0.63
2022-12-28T01:24:23.329Z,0.80
2022-12-28T01:26:52.804Z,0.74
2022-12-28T01:29:22.283Z,0.74
2022-12-28T01:31:51.833Z,0.71
2022-12-28T01:34:20.620Z,0.76
2022-12-28T01:36:50.127Z,0.78
2022-12-28T01:39:19.641Z,0.69
2022-12-28T01:41:48.393Z,0.78
2022-12-28T01:44:16.012Z,0.73
2022-12-28T01:47:01.202Z,0.56
2022-12-28T01:49:53.706Z,0.22
2022-12-28T01:52:43.385Z,0.36
2022-12-28T01:55:35.818Z,0.17
2022-12-28T01:58:25.019Z,0.25
2022-12-28T02:00:55.056Z,0.40
2022-12-28T02:03:29.648Z,0.48
2022-12-28T02:06:04.864Z,0.50
2022-12-28T02:09:04.540Z,0.60
2022-12-28T02:11:34.183Z,0.58
2022-12-28T02:14:03.778Z,0.67
2022-12-28T02:16:32.688Z,0.76
2022-12-28T02:19:00.533Z,0.95
2022-12-28T02:21:51.662Z,0.90
2022-12-28T02:25:11.974Z,0.97
2022-12-28T02:28:23.633Z,1.13
2022-12-28T02:31:40.370Z,0.98
2022-12-28T02:34:25.577Z,1.10
2022-12-28T02:37:18.252Z,0.96
2022-12-28T02:39:58.741Z,1.09
2022-12-28T02:42:29.959Z,1.13
2022-12-28T02:45:17.274Z,1.04
2022-12-28T02:48:05.897Z,0.93
2022-12-28T02:51:07.835Z,0.75
2022-12-28T02:54:01.758Z,0.93
2022-12-28T02:56:56.540Z,0.95
2022-12-28T02:59:55.963Z,0.94
2022-12-28T03:03:28.569Z,0.87
2022-12-28T03:07:06.467Z,0.77
2022-12-28T03:10:26.111Z,0.68
2022-12-28T03:13:28.904Z,0.79
2022-12-28T03:16:08.082Z,0.80
2022-12-28T03:18:56.938Z,0.71
2022-12-28T03:21:48.101Z,0.67
2022-12-28T03:24:37.831Z,0.54
2022-12-28T03:27:30.268Z,0.64
2022-12-28T03:30:32.166Z,0.79
2022-12-28T03:33:01.634Z,0.86
2022-12-28T03:36:17.208Z,0.84
2022-12-28T03:39:33.856Z,0.69
2022-12-28T03:42:52.915Z,0.84
2022-12-28T03:45:46.388Z,0.86
2022-12-28T03:48:18.069Z,0.91
2022-12-28T03:50:49.581Z,0.87
2022-12-28T03:53:26.851Z,0.82
2022-12-28T03:56:22.071Z,0.67
2022-12-28T03:58:52.869Z,0.70
2022-12-28T04:01:22.785Z,0.78
2022-12-28T04:03:51.077Z,0.87
2022-12-28T04:06:21.579Z,0.76
2022-12-28T04:08:50.350Z,0.74
2022-12-28T04:11:19.867Z,0.75
2022-12-28T04:13:50.217Z,0.50
2022-12-28T04:16:19.097Z,0.69
2022-12-28T04:18:47.883Z,0.61
2022-12-28T04:21:17.129Z,0.49
2022-12-28T04:23:44.889Z,0.53
2022-12-28T04:26:17.699Z,0.31
2022-12-28T04:28:46.508Z,0.32
2022-12-28T04:31:15.177Z,0.39
2022-12-28T04:33:43.025Z,0.03
2022-12-28T04:36:17.079Z,-0.10
2022-12-28T04:38:45.788Z,-0.38
2022-12-28T04:41:14.554Z,-0.54
2022-12-28T04:43:44.094Z,-0.57
2022-12-28T04:46:18.526Z,-0.42
2022-12-28T04:48:46.331Z,-0.59
2022-12-28T04:51:22.098Z,-0.90
2022-12-28T04:53:50.577Z,-0.77
2022-12-28T04:56:22.447Z,-0.59
2022-12-28T04:59:00.754Z,-0.78
2022-12-28T05:01:31.063Z,-0.90
2022-12-28T05:04:00.812Z,-0.59
2022-12-28T05:06:29.580Z,-0.60
2022-12-28T05:08:58.791Z,-0.57
2022-12-28T05:11:29.721Z,-0.50
2022-12-28T05:13:59.135Z,-0.67
2022-12-28T05:16:30.849Z,-0.68
2022-12-28T05:18:59.642Z,-0.59
2022-12-28T05:21:29.987Z,-0.78
2022-12-28T05:23:59.916Z,-1.42
2022-12-28T05:26:30.517Z,-1.45
2022-12-28T05:29:00.134Z,-1.49
2022-12-28T05:31:29.775Z,-1.30
2022-12-28T05:33:58.634Z,-1.16
2022-12-28T05:36:29.027Z,-1.33
2022-12-28T05:38:57.386Z,-1.24
2022-12-28T05:41:29.571Z,-1.19
2022-12-28T05:44:00.178Z,-1.12
2022-12-28T05:46:32.677Z,-1.12
2022-12-28T05:49:02.318Z,-1.31
2022-12-28T05:51:33.580Z,-1.19
2022-12-28T05:54:06.785Z,-1.37
2022-12-28T05:56:35.993Z,-1.45
2022-12-28T05:59:07.782Z,-1.41
2022-12-28T06:01:42.597Z,-1.09
2022-12-28T06:04:21.329Z,-1.15
2022-12-28T06:06:50.176Z,-1.07
2022-12-28T06:09:19.744Z,-1.36
2022-12-28T06:11:48.532Z,-0.95
2022-12-28T06:14:16.324Z,-1.08
2022-12-28T06:16:46.099Z,-1.32
2022-12-28T06:19:15.594Z,-1.19
2022-12-28T06:21:44.721Z,-1.63
2022-12-28T06:24:14.513Z,-1.61
2022-12-28T06:26:43.344Z,-1.57
2022-12-28T06:29:12.807Z,-1.40
2022-12-28T06:31:51.454Z,-1.21
2022-12-28T06:34:19.347Z,-1.32
2022-12-28T06:36:52.704Z,-1.35
2022-12-28T06:39:21.383Z,-1.31
2022-12-28T06:41:50.713Z,-1.52
2022-12-28T06:44:18.491Z,-1.32
2022-12-28T06:46:47.384Z,-1.29
2022-12-28T06:49:16.057Z,-1.12
2022-12-28T06:51:44.754Z,-1.08
2022-12-28T06:54:14.295Z,-0.97
2022-12-28T06:56:43.129Z,-0.94
2022-12-28T06:59:12.670Z,-0.81
2022-12-28T07:01:45.011Z,-0.76
2022-12-28T07:04:14.952Z,-0.74
2022-12-28T07:06:45.230Z,-0.59
2022-12-28T07:09:16.723Z,-0.47
2022-12-28T07:11:49.387Z,-0.41
2022-12-28T07:14:19.319Z,-0.48
2022-12-28T07:16:49.422Z,-0.42
2022-12-28T07:19:18.930Z,-0.36
2022-12-28T07:21:46.669Z,-0.18
2022-12-28T07:24:14.591Z,-0.13
2022-12-28T07:26:44.759Z,0.14
2022-12-28T07:29:14.364Z,0.19
2022-12-28T07:31:45.739Z,0.43
2022-12-28T07:34:16.453Z,0.22
2022-12-28T07:36:46.100Z,0.21
2022-12-28T07:39:14.793Z,0.46
2022-12-28T07:41:44.924Z,0.44
2022-12-28T07:44:12.813Z,0.71
2022-12-28T07:46:41.659Z,0.64
2022-12-28T07:49:09.452Z,0.94
2022-12-28T07:51:39.620Z,1.21
2022-12-28T07:54:07.835Z,1.40
2022-12-28T07:59:06.810Z,1.82
2022-12-28T08:01:37.469Z,1.72
2022-12-28T08:04:11.327Z,1.87
2022-12-28T08:06:43.197Z,1.90
2022-12-28T08:09:15.226Z,1.80
2022-12-28T08:11:46.626Z,1.33
2022-12-28T08:14:16.439Z,1.54
2022-12-28T08:16:46.016Z,1.75
2022-12-28T08:19:15.538Z,1.72
2022-12-28T08:21:47.128Z,2.15
2022-12-28T08:24:19.934Z,2.25
2022-12-28T08:26:50.216Z,2.13
2022-12-28T08:29:22.815Z,2.37
2022-12-28T08:31:52.329Z,2.17
2022-12-28T08:34:26.973Z,2.46
2022-12-28T08:36:57.507Z,2.45
2022-12-28T08:39:29.759Z,2.54
2022-12-28T08:41:59.422Z,2.44
2022-12-28T08:44:29.051Z,2.69
2022-12-28T08:46:58.858Z,2.49
2022-12-28T08:49:28.522Z,2.73
2022-12-28T08:51:59.127Z,2.76
2022-12-28T08:54:28.756Z,2.60
2022-12-28T08:56:58.350Z,3.12
2022-12-28T08:59:27.852Z,2.91
2022-12-28T09:01:57.504Z,2.93
2022-12-28T09:04:27.246Z,3.58
2022-12-28T09:06:56.811Z,4.08
2022-12-28T09:09:26.335Z,3.83
2022-12-28T09:11:55.901Z,4.27
2022-12-28T09:14:25.536Z,4.36
2022-12-28T09:16:55.003Z,4.55
2022-12-28T09:19:24.682Z,4.86
2022-12-28T09:21:55.510Z,4.65
2022-12-28T09:24:25.018Z,4.93
2022-12-28T09:26:55.494Z,4.91
2022-12-28T09:29:24.213Z,5.07
2022-12-28T09:31:53.661Z,5.49
2022-12-28T09:34:38.602Z,5.39
2022-12-28T09:37:08.873Z,5.54
2022-12-28T09:39:38.394Z,5.87
2022-12-28T09:42:17.405Z,5.94
2022-12-28T09:45:00.667Z,6.14
2022-12-28T09:47:49.911Z,6.38
2022-12-28T09:50:19.318Z,7.04
2022-12-28T09:53:24.058Z,6.73
2022-12-28T09:55:58.369Z,6.69
2022-12-28T09:58:30.695Z,6.55
2022-12-28T10:01:02.127Z,6.42
2022-12-28T10:03:40.657Z,6.61
2022-12-28T10:06:17.709Z,6.96
2022-12-28T10:09:01.713Z,6.81
2022-12-28T10:11:39.822Z,6.59
2022-12-28T10:14:36.199Z,6.72
2022-12-28T10:17:06.455Z,6.66
2022-12-28T10:19:34.271Z,6.69
2022-12-28T10:22:13.303Z,6.66
2022-12-28T10:24:41.694Z,6.72
2022-12-28T10:27:23.464Z,7.29
2022-12-28T10:29:55.088Z,7.07
2022-12-28T10:32:23.005Z,7.07
2022-12-28T10:35:03.479Z,7.30
2022-12-28T10:37:37.249Z,7.11
2022-12-28T10:40:27.446Z,7.16
2022-12-28T10:42:58.761Z,7.15
2022-12-28T10:45:41.065Z,7.24
2022-12-28T10:48:23.156Z,7.58
2022-12-28T10:51:14.603Z,7.38
2022-12-28T10:53:51.383Z,7.64
2022-12-28T10:56:31.166Z,8.01
2022-12-28T10:59:32.295Z,7.63
2022-12-28T11:02:30.452Z,7.51
2022-12-28T11:05:06.110Z,7.60
2022-12-28T11:07:39.279Z,7.43
2022-12-28T11:10:26.017Z,7.45
2022-12-28T11:12:58.287Z,7.10
2022-12-28T11:15:32.066Z,7.02
2022-12-28T11:18:20.595Z,7.19
2022-12-28T11:20:53.369Z,7.22
2022-12-28T11:23:31.961Z,7.08
2022-12-28T11:26:00.298Z,7.10
2022-12-28T11:28:28.218Z,7.24
2022-12-28T11:30:58.702Z,7.47
2022-12-28T11:33:46.284Z,7.40
2022-12-28T11:36:25.230Z,7.35
2022-12-28T11:38:56.605Z,7.38
2022-12-28T11:41:31.790Z,6.77
2022-12-28T11:44:06.323Z,7.10
2022-12-28T11:46:40.308Z,7.10
2022-12-28T11:49:35.617Z,7.15
2022-12-28T11:52:27.558Z,7.31
2022-12-28T11:54:57.324Z,7.66
2022-12-28T11:57:44.997Z,7.28
2022-12-28T12:00:22.811Z,7.33
2022-12-28T12:03:01.099Z,7.21
2022-12-28T12:05:38.992Z,7.34
2022-12-28T12:08:12.635Z,7.17
2022-12-28T12:10:46.165Z,7.39
2022-12-28T12:13:26.961Z,7.41
2022-12-28T12:16:05.434Z,7.47
2022-12-28T12:18:49.412Z,7.11
2022-12-28T12:21:30.310Z,7.10
2022-12-28T12:24:14.825Z,7.11
2022-12-28T12:26:51.696Z,7.35
2022-12-28T12:29:47.188Z,7.12
2022-12-28T12:33:06.017Z,7.33
2022-12-28T12:35:57.831Z,7.59
2022-12-28T12:39:16.879Z,7.67
2022-12-28T12:42:29.889Z,7.63
2022-12-28T12:45:33.521Z,7.81
2022-12-28T12:48:42.785Z,7.66
2022-12-28T12:51:32.958Z,7.84
2022-12-28T12:54:33.354Z,8.25
2022-12-28T12:57:26.935Z,7.99
2022-12-28T13:00:18.238Z,7.54
2022-12-28T13:03:40.011Z,7.59
2022-12-28T13:06:10.170Z,7.46
2022-12-28T13:09:06.891Z,7.14
2022-12-28T13:11:40.253Z,7.20
2022-12-28T13:14:24.204Z,7.43
2022-12-28T13:16:59.112Z,7.12
2022-12-28T13:19:30.039Z,7.02
2022-12-28T13:21:59.318Z,7.17
2022-12-28T13:24:30.748Z,7.29
2022-12-28T13:27:02.632Z,6.98
2022-12-28T13:29:39.756Z,7.03
2022-12-28T13:32:32.872Z,6.92
2022-12-28T13:35:28.455Z,6.84
2022-12-28T13:38:18.170Z,6.69
2022-12-28T13:40:53.888Z,6.85
2022-12-28T13:44:16.896Z,6.64
2022-12-28T13:46:53.827Z,6.72
2022-12-28T13:49:23.961Z,6.63
2022-12-28T13:51:53.913Z,6.55
2022-12-28T13:54:25.204Z,6.57
2022-12-28T13:57:20.481Z,6.61
2022-12-28T13:59:47.417Z,6.79
2022-12-28T14:02:21.893Z,6.93
2022-12-28T14:04:54.427Z,6.72
2022-12-28T14:07:29.360Z,6.48
2022-12-28T14:09:58.755Z,6.52
2022-12-28T14:12:28.255Z,6.52
2022-12-28T14:15:01.333Z,6.22
2022-12-28T14:17:30.312Z,6.53
2022-12-28T14:20:00.252Z,6.77
2022-12-28T14:22:37.207Z,6.37
2022-12-28T14:25:15.257Z,6.13
2022-12-28T14:28:03.818Z,6.04
2022-12-28T14:30:42.295Z,5.98
2022-12-28T14:33:24.956Z,6.17
2022-12-28T14:36:22.329Z,5.68
2022-12-28T14:38:57.195Z,5.29
2022-12-28T14:41:39.898Z,5.66
2022-12-28T14:44:17.859Z,5.54
2022-12-28T14:46:46.784Z,5.75
2022-12-28T14:49:34.734Z,5.41
2022-12-28T14:52:09.219Z,5.78
2022-12-28T14:54:49.064Z,5.34
2022-12-28T14:57:32.144Z,5.08
2022-12-28T15:00:35.908Z,5.44
2022-12-28T15:03:20.983Z,5.66
2022-12-28T15:05:59.749Z,5.42
2022-12-28T15:08:29.245Z,5.35
2022-12-28T15:11:00.451Z,5.04
2022-12-28T15:13:29.137Z,5.09
2022-12-28T15:16:04.305Z,5.13
2022-12-28T15:18:34.237Z,5.03
2022-12-28T15:21:05.918Z,4.99
2022-12-28T15:23:35.407Z,4.94
2022-12-28T15:26:14.486Z,4.98
2022-12-28T15:28:43.970Z,4.94
2022-12-28T15:31:20.053Z,4.68
2022-12-28T15:33:49.796Z,4.51
2022-12-28T15:36:21.826Z,4.26
2022-12-28T15:38:51.488Z,4.49
2022-12-28T15:41:39.598Z,4.20
2022-12-28T15:44:09.040Z,3.99
2022-12-28T15:46:38.544Z,3.90
2022-12-28T15:49:11.171Z,3.80
2022-12-28T15:51:42.851Z,3.80
2022-12-28T15:54:12.248Z,3.76
2022-12-28T15:56:42.685Z,3.72
2022-12-28T15:59:15.334Z,3.50
2022-12-28T16:01:46.145Z,3.53
2022-12-28T16:04:15.701Z,3.53
2022-12-28T16:06:45.473Z,3.53
2022-12-28T16:09:14.970Z,3.64
2022-12-28T16:11:43.702Z,3.51
2022-12-28T16:14:16.693Z,3.55
2022-12-28T16:16:46.015Z,3.50
2022-12-28T16:19:16.745Z,3.32
2022-12-28T16:21:45.960Z,3.25
2022-12-28T16:24:13.724Z,3.10
2022-12-28T16:26:44.604Z,2.95
2022-12-28T16:29:13.333Z,2.95
2022-12-28T16:31:41.701Z,3.04
2022-12-28T16:34:17.443Z,2.94
2022-12-28T16:36:47.699Z,2.64
2022-12-28T16:39:18.748Z,2.47
2022-12-28T16:41:48.536Z,2.62
2022-12-28T16:44:22.173Z,2.77
2022-12-28T16:46:54.128Z,2.60
2022-12-28T16:49:26.218Z,2.44
2022-12-28T16:51:54.158Z,2.47
2022-12-28T16:54:27.154Z,2.61
2022-12-28T16:56:57.661Z,2.44
2022-12-28T16:59:28.598Z,2.20
2022-12-28T17:01:58.092Z,2.11
2022-12-28T17:04:28.667Z,2.13
2022-12-28T17:06:59.727Z,2.21
2022-12-28T17:09:29.411Z,2.11
2022-12-28T17:11:59.032Z,1.89
2022-12-28T17:14:37.676Z,2.20
2022-12-28T17:17:08.393Z,2.36
2022-12-28T17:19:38.237Z,2.10
2022-12-28T17:22:07.881Z,2.37
2022-12-28T17:24:37.601Z,2.41
2022-12-28T17:27:09.088Z,2.32
2022-12-28T17:29:40.501Z,1.97
2022-12-28T17:32:09.542Z,1.90
2022-12-28T17:34:39.265Z,1.97
2022-12-28T17:37:08.211Z,2.13
2022-12-28T17:39:40.269Z,1.98
2022-12-28T17:42:10.676Z,2.10
2022-12-28T17:44:39.638Z,2.04
2022-12-28T17:47:10.724Z,2.18
2022-12-28T17:49:39.428Z,2.08
2022-12-28T17:52:09.028Z,2.10
2022-12-28T17:54:38.428Z,1.97
2022-12-28T17:57:07.122Z,2.15
2022-12-28T17:59:35.808Z,2.24
2022-12-28T18:02:10.129Z,2.14
2022-12-28T18:04:41.245Z,2.13
2022-12-28T18:07:10.740Z,2.10
2022-12-28T18:09:39.412Z,2.01
2022-12-28T18:12:08.187Z,1.98
2022-12-28T18:14:37.582Z,2.07
2022-12-28T18:17:07.117Z,1.94
2022-12-28T18:19:37.098Z,2.07
2022-12-28T18:22:05.751Z,2.09
2022-12-28T18:24:35.226Z,1.96
2022-12-28T18:27:04.741Z,2.00
2022-12-28T18:29:34.208Z,2.02
2022-12-28T18:32:01.936Z,2.00
2022-12-28T18:34:30.764Z,2.01
2022-12-28T18:37:00.352Z,1.89
2022-12-28T18:39:29.979Z,1.77
2022-12-28T18:41:59.467Z,1.62
2022-12-28T18:44:29.024Z,1.58
2022-12-28T18:46:57.709Z,1.59
2022-12-28T18:49:29.327Z,1.61
2022-12-28T18:51:57.204Z,1.60
2022-12-28T18:54:25.879Z,1.75
2022-12-28T18:56:56.488Z,1.68
2022-12-28T18:59:26.105Z,1.71
2022-12-28T19:02:06.499Z,1.60
2022-12-28T19:04:36.130Z,1.23
2022-12-28T19:07:04.947Z,1.23
2022-12-28T19:09:32.653Z,1.07
2022-12-28T19:12:00.581Z,1.18
2022-12-28T19:14:29.319Z,1.25
2022-12-28T19:16:58.797Z,1.24
2022-12-28T19:19:27.595Z,1.13
2022-12-28T19:21:59.116Z,1.05
2022-12-28T19:24:28.957Z,0.87
2022-12-28T19:26:57.735Z,1.03
2022-12-28T19:29:27.230Z,1.14
2022-12-28T19:31:56.752Z,0.95
2022-12-28T19:34:26.301Z,0.60
2022-12-28T19:36:54.989Z,0.49
2022-12-28T19:39:25.442Z,0.33
2022-12-28T19:41:54.977Z,0.26
2022-12-28T19:44:24.655Z,0.27
2022-12-28T19:46:54.996Z,0.47
2022-12-28T19:49:24.614Z,0.67
2022-12-28T19:51:55.669Z,0.64
2022-12-28T19:54:26.130Z,0.92
2022-12-28T19:56:55.697Z,0.88
2022-12-28T19:59:25.639Z,0.67
2022-12-28T20:01:55.406Z,0.20
2022-12-28T20:04:25.137Z,0.02
2022-12-28T20:06:56.167Z,0.12
2022-12-28T20:09:25.744Z,0.27
2022-12-28T20:11:55.313Z,0.67
2022-12-28T20:14:25.267Z,0.44
2022-12-28T20:16:54.924Z,0.71
2022-12-28T20:19:24.151Z,0.62
2022-12-28T20:21:52.814Z,0.36
2022-12-28T20:24:22.477Z,0.15
2022-12-28T20:26:56.402Z,-0.03
2022-12-28T20:29:29.377Z,0.00
2022-12-28T20:31:58.307Z,-0.30
2022-12-28T20:34:28.114Z,-0.05
2022-12-28T20:36:57.638Z,-0.14
2022-12-28T20:39:27.167Z,0.07
2022-12-28T20:42:15.470Z,0.05
2022-12-28T20:44:45.065Z,0.12
2022-12-28T20:47:14.742Z,0.42
2022-12-28T20:49:44.413Z,-0.11
2022-12-28T20:52:13.105Z,-0.02
2022-12-28T20:54:42.712Z,0.10
2022-12-28T20:57:12.274Z,-0.01
2022-12-28T20:59:41.797Z,-0.08
2022-12-28T21:02:11.419Z,-0.04
2022-12-28T21:04:41.152Z,-0.03
2022-12-28T21:07:10.769Z,-0.18
2022-12-28T21:09:40.358Z,0.10
2022-12-28T21:12:09.926Z,-0.09
2022-12-28T21:14:39.467Z,-0.44
2022-12-28T21:17:09.006Z,-0.84
2022-12-28T21:19:38.584Z,-0.99
2022-12-28T21:22:07.299Z,-1.00
2022-12-28T21:24:38.524Z,-1.10
2022-12-28T21:27:08.671Z,-1.04
2022-12-28T21:29:38.231Z,-0.82
2022-12-28T21:32:09.698Z,-0.99
2022-12-28T21:34:38.422Z,-0.74
2022-12-28T21:37:27.457Z,-0.71
2022-12-28T21:39:57.081Z,-0.73
2022-12-28T21:42:28.674Z,-0.52
2022-12-28T21:44:59.283Z,-0.59
2022-12-28T21:47:29.847Z,-0.57
2022-12-28T21:49:59.487Z,-0.57
2022-12-28T21:52:32.528Z,-0.69
2022-12-28T21:55:23.131Z,-0.98
2022-12-28T21:57:55.145Z,-1.12
2022-12-28T22:00:44.181Z,-1.24
2022-12-28T22:03:33.410Z,-1.40
2022-12-28T22:06:05.262Z,-0.88
2022-12-28T22:08:53.996Z,-0.76
2022-12-28T22:11:42.178Z,-0.92
2022-12-28T22:14:11.849Z,-0.76
2022-12-28T22:16:42.794Z,-1.14
2022-12-28T22:19:12.747Z,-1.01
2022-12-28T22:21:44.225Z,-0.99
2022-12-28T22:24:13.818Z,-1.02
2022-12-28T22:26:43.472Z,-1.11
2022-12-28T22:29:13.083Z,-1.16
2022-12-28T22:31:42.842Z,-1.13
2022-12-28T22:34:12.927Z,-1.39
2022-12-28T22:36:42.510Z,-1.64
2022-12-28T22:39:12.639Z,-1.36
2022-12-28T22:41:42.263Z,-1.59
2022-12-28T22:44:11.937Z,-1.68
2022-12-28T22:46:41.596Z,-1.68
2022-12-28T22:49:11.225Z,-1.70
2022-12-28T22:51:41.189Z,-1.44
2022-12-28T22:54:11.462Z,-1.57
2022-12-28T22:56:41.114Z,-1.46
2022-12-28T22:59:15.419Z,-1.51
2022-12-28T23:01:48.446Z,-1.57
2022-12-28T23:04:18.120Z,-1.88
2022-12-28T23:06:47.821Z,-1.79
2022-12-28T23:09:17.569Z,-1.74
2022-12-28T23:11:47.841Z,-1.78
2022-12-28T23:14:43.099Z,-1.90
2022-12-28T23:17:16.320Z,-2.02
2022-12-28T23:20:04.654Z,-1.83
2022-12-28T23:23:11.002Z,-1.94
2022-12-28T23:26:00.785Z,-1.80
2022-12-28T23:28:30.740Z,-1.79
2022-12-28T23:31:00.596Z,-1.83
2022-12-28T23:33:30.331Z,-1.65
2022-12-28T23:36:05.288Z,-1.92
2022-12-28T23:38:35.014Z,-2.06
2022-12-28T23:41:26.681Z,-1.97
2022-12-28T23:43:56.190Z,-1.93
2022-12-28T23:46:25.832Z,-1.94
2022-12-28T23:48:55.562Z,-1.98
2022-12-28T23:51:25.181Z,-1.80
2022-12-28T23:53:54.843Z,-1.85
2022-12-28T23:56:25.922Z,-1.84
2022-12-28T23:58:55.629Z,-1.92
